createdAt,value
2019-05-29T00:02:18.503Z,3.30
2019-05-29T00:07:24.972Z,2.55
2019-05-29T00:12:31.395Z,2.08
2019-05-29T00:17:37.847Z,2.53
2019-05-29T00:22:44.238Z,2.30
2019-05-29T00:27:50.973Z,2.20
2019-05-29T00:32:57.645Z,2.13
2019-05-29T00:38:04.161Z,2.20
2019-05-29T00:43:11.176Z,2.40
2019-05-29T00:48:17.917Z,2.60
2019-05-29T00:53:24.550Z,2.93
2019-05-29T00:58:31.499Z,2.85
2019-05-29T01:03:37.778Z,2.87
2019-05-29T01:08:44.260Z,3.02
2019-05-29T01:13:50.755Z,3.20
2019-05-29T01:19:16.500Z,3.00
2019-05-29T01:24:23.334Z,2.62
2019-05-29T01:29:29.968Z,2.70
2019-05-29T01:34:36.665Z,2.90
2019-05-29T01:39:42.766Z,3.15
2019-05-29T01:45:03.851Z,2.98
2019-05-29T01:49:57.680Z,3.07
2019-05-29T01:55:05.552Z,2.74
2019-05-29T02:00:12.365Z,3.22
2019-05-29T02:05:19.848Z,3.17
2019-05-29T02:10:26.330Z,3.20
2019-05-29T02:15:34.159Z,3.00
2019-05-29T02:20:40.968Z,3.05
2019-05-29T02:25:47.359Z,3.40
2019-05-29T02:30:53.973Z,3.25
2019-05-29T02:36:00.738Z,3.80
2019-05-29T02:41:07.831Z,3.90
2019-05-29T02:46:14.229Z,4.00
2019-05-29T02:51:22.077Z,3.92
2019-05-29T02:56:29.167Z,4.23
2019-05-29T03:01:36.323Z,4.67
2019-05-29T03:06:42.993Z,4.43
2019-05-29T03:11:49.706Z,5.00
2019-05-29T03:16:56.239Z,5.25
2019-05-29T03:22:02.676Z,5.80
2019-05-29T03:27:09.365Z,5.87
2019-05-29T03:32:16.074Z,6.13
2019-05-29T03:37:22.433Z,6.67
2019-05-29T03:42:30.298Z,7.00
2019-05-29T03:47:37.196Z,7.60
2019-05-29T03:52:43.750Z,7.40
2019-05-29T03:57:49.931Z,6.78
2019-05-29T04:02:56.460Z,6.87
2019-05-29T04:08:03.139Z,7.03
2019-05-29T04:13:09.835Z,7.57
2019-05-29T04:18:20.879Z,8.25
2019-05-29T04:23:32.084Z,8.00
2019-05-29T04:28:39.030Z,8.40
2019-05-29T04:33:45.248Z,9.20
2019-05-29T04:38:51.635Z,9.13
2019-05-29T04:43:58.008Z,8.98
2019-05-29T04:49:04.599Z,9.80
2019-05-29T04:54:11.302Z,9.65
2019-05-29T04:59:17.763Z,9.60
2019-05-29T05:04:24.050Z,10.15
2019-05-29T05:09:31.254Z,9.83
2019-05-29T05:14:38.036Z,9.60
2019-05-29T05:19:44.436Z,9.43
2019-05-29T05:24:50.835Z,10.15
2019-05-29T05:29:56.904Z,9.70
2019-05-29T05:35:03.773Z,9.30
2019-05-29T05:40:10.569Z,9.20
2019-05-29T05:45:16.763Z,8.70
2019-05-29T05:50:23.441Z,7.37
2019-05-29T05:55:29.928Z,8.18
2019-05-29T06:00:37.993Z,8.60
2019-05-29T06:05:44.047Z,7.20
2019-05-29T06:10:51.332Z,8.33
2019-05-29T06:15:57.859Z,8.73
2019-05-29T06:21:04.024Z,7.60
2019-05-29T06:26:10.063Z,8.30
2019-05-29T06:31:16.239Z,7.08
2019-05-29T06:36:23.776Z,8.38
2019-05-29T06:41:29.947Z,7.77
2019-05-29T06:46:38.235Z,7.80
2019-05-29T06:51:44.802Z,8.13
2019-05-29T06:56:51.877Z,8.37
2019-05-29T07:01:58.317Z,8.70
2019-05-29T07:07:04.692Z,8.77
2019-05-29T07:12:11.390Z,8.43
2019-05-29T07:17:17.604Z,8.93
2019-05-29T07:22:23.627Z,8.33
2019-05-29T07:27:29.843Z,7.92
2019-05-29T07:32:38.720Z,8.18
2019-05-29T07:37:45.828Z,8.03
2019-05-29T07:42:56.247Z,7.60
2019-05-29T07:48:00.276Z,7.20
2019-05-29T07:53:06.747Z,6.85
2019-05-29T07:58:13.540Z,7.00
2019-05-29T08:03:20.535Z,7.27
2019-05-29T08:08:26.986Z,6.97
2019-05-29T08:13:33.368Z,6.50
2019-05-29T08:18:41.670Z,6.87
2019-05-29T08:23:48.865Z,5.67
2019-05-29T08:28:55.624Z,5.40
2019-05-29T08:34:01.906Z,5.42
2019-05-29T08:39:09.007Z,6.60
2019-05-29T08:44:15.404Z,6.58
2019-05-29T08:49:21.779Z,7.20
2019-05-29T08:54:28.150Z,6.75
2019-05-29T08:59:35.148Z,5.97
2019-05-29T09:04:43.043Z,5.45
2019-05-29T09:09:51.120Z,5.35
2019-05-29T09:14:58.093Z,4.57
2019-05-29T09:20:05.994Z,4.80
2019-05-29T09:25:13.619Z,4.80
2019-05-29T09:30:21.804Z,6.80
2019-05-29T09:35:27.851Z,6.10
2019-05-29T09:40:34.268Z,6.40
2019-05-29T09:45:40.447Z,6.73
2019-05-29T09:50:50.415Z,5.40
2019-05-29T09:55:57.243Z,5.90
2019-05-29T10:01:19.498Z,4.95
2019-05-29T10:06:12.375Z,5.17
2019-05-29T10:11:19.263Z,4.53
2019-05-29T10:16:25.778Z,4.77
2019-05-29T10:21:40.156Z,4.70
2019-05-29T10:26:41.165Z,4.45
2019-05-29T10:31:49.811Z,4.43
2019-05-29T10:36:56.049Z,4.03
2019-05-29T10:42:02.769Z,3.87
2019-05-29T10:47:09.268Z,3.60
2019-05-29T10:52:17.538Z,3.90
2019-05-29T10:57:24.208Z,3.90
2019-05-29T11:02:30.961Z,3.13
2019-05-29T11:07:37.484Z,3.33
2019-05-29T11:12:44.241Z,3.00
2019-05-29T11:17:51.367Z,2.63
2019-05-29T11:22:58.575Z,3.07
2019-05-29T11:28:05.063Z,2.90
2019-05-29T11:33:11.627Z,3.13
2019-05-29T11:38:18.376Z,2.60
2019-05-29T11:43:24.960Z,2.20
2019-05-29T11:48:31.781Z,1.73
2019-05-29T11:53:38.331Z,2.10
2019-05-29T11:58:44.741Z,2.00
2019-05-29T12:04:15.597Z,1.87
2019-05-29T12:09:00.118Z,1.80
2019-05-29T12:14:06.766Z,1.70
2019-05-29T12:19:13.893Z,1.33
2019-05-29T12:24:20.627Z,1.50
2019-05-29T12:29:26.723Z,1.80
2019-05-29T12:34:33.523Z,1.40
2019-05-29T12:39:40.421Z,1.70
2019-05-29T12:44:47.521Z,1.37
2019-05-29T12:49:55.428Z,1.30
2019-05-29T12:55:02.458Z,1.37
2019-05-29T13:00:11.003Z,1.30
2019-05-29T13:05:20.535Z,1.60
2019-05-29T13:10:31.052Z,1.40
2019-05-29T13:15:35.663Z,1.50
2019-05-29T13:20:42.382Z,1.50
2019-05-29T13:25:48.548Z,1.60
2019-05-29T13:30:55.782Z,1.50
2019-05-29T13:36:02.517Z,1.67
2019-05-29T13:41:08.606Z,1.35
2019-05-29T13:46:14.781Z,1.42
2019-05-29T13:51:21.676Z,1.50
2019-05-29T13:56:28.138Z,1.50
2019-05-29T14:01:34.944Z,1.30
2019-05-29T14:06:41.413Z,1.10
2019-05-29T14:11:47.592Z,1.42
2019-05-29T14:16:53.998Z,1.17
2019-05-29T14:22:01.135Z,1.27
2019-05-29T14:27:07.812Z,1.20
2019-05-29T14:32:14.356Z,1.20
2019-05-29T14:37:20.438Z,1.05
2019-05-29T14:42:27.229Z,1.15
2019-05-29T14:47:33.498Z,1.22
2019-05-29T14:52:40.138Z,1.00
2019-05-29T14:57:46.883Z,1.33
2019-05-29T15:02:53.554Z,1.00
2019-05-29T15:07:59.900Z,1.20
2019-05-29T15:13:06.723Z,1.13
2019-05-29T15:18:17.266Z,1.13
2019-05-29T15:23:21.669Z,1.60
2019-05-29T15:28:27.790Z,1.62
2019-05-29T15:33:33.939Z,1.10
2019-05-29T15:38:40.424Z,0.60
2019-05-29T15:43:49.318Z,0.85
2019-05-29T15:48:54.432Z,0.90
2019-05-29T15:54:00.865Z,0.90
2019-05-29T15:59:07.823Z,1.20
2019-05-29T16:04:15.806Z,1.20
2019-05-29T16:09:22.335Z,1.30
2019-05-29T16:14:28.764Z,1.53
2019-05-29T16:19:35.542Z,1.70
2019-05-29T16:24:42.033Z,1.50
2019-05-29T16:29:48.499Z,1.40
2019-05-29T16:34:55.012Z,1.40
2019-05-29T16:40:01.457Z,1.50
2019-05-29T16:45:10.179Z,1.57
2019-05-29T16:50:17.937Z,1.50
2019-05-29T16:55:25.475Z,1.40
2019-05-29T17:00:31.640Z,1.70
2019-05-29T17:05:38.427Z,1.72
2019-05-29T17:10:44.807Z,2.27
2019-05-29T17:15:51.615Z,2.00
2019-05-29T17:20:57.971Z,1.70
2019-05-29T17:26:10.520Z,1.90
2019-05-29T17:31:12.671Z,1.85
2019-05-29T17:36:18.981Z,2.87
2019-05-29T17:41:25.731Z,1.85
2019-05-29T17:46:32.366Z,1.80
2019-05-29T17:51:38.881Z,1.90
2019-05-29T17:56:44.955Z,2.00
2019-05-29T18:01:51.591Z,1.70
2019-05-29T18:06:57.688Z,1.47
2019-05-29T18:12:03.885Z,1.35
2019-05-29T18:17:10.346Z,2.00
2019-05-29T18:22:17.503Z,1.67
2019-05-29T18:27:24.342Z,1.70
2019-05-29T18:32:30.717Z,1.50
2019-05-29T18:37:37.462Z,1.50
2019-05-29T18:42:44.178Z,1.60
2019-05-29T18:47:50.786Z,1.83
2019-05-29T18:52:57.670Z,2.02
2019-05-29T18:58:04.215Z,2.22
2019-05-29T19:03:11.131Z,2.30
2019-05-29T19:08:18.143Z,2.30
2019-05-29T19:13:24.188Z,2.20
2019-05-29T19:18:30.667Z,2.00
2019-05-29T19:23:37.193Z,2.30
2019-05-29T19:28:43.571Z,4.27
2019-05-29T19:33:50.275Z,4.30
2019-05-29T19:38:56.737Z,3.27
2019-05-29T19:44:02.909Z,3.25
2019-05-29T19:49:09.741Z,3.60
2019-05-29T19:54:16.209Z,3.52
2019-05-29T19:59:22.655Z,3.70
2019-05-29T20:04:30.556Z,3.80
2019-05-29T20:09:37.682Z,3.85
2019-05-29T20:14:43.711Z,4.55
2019-05-29T20:19:49.983Z,4.70
2019-05-29T20:24:56.991Z,6.07
2019-05-29T20:30:03.801Z,5.47
2019-05-29T20:35:10.679Z,5.10
2019-05-29T20:40:17.459Z,5.43
2019-05-29T20:45:23.554Z,5.63
2019-05-29T20:50:30.899Z,5.85
2019-05-29T20:55:37.751Z,6.00
2019-05-29T21:00:44.297Z,6.27
2019-05-29T21:05:50.816Z,8.33
2019-05-29T21:10:57.180Z,7.63
2019-05-29T21:16:03.651Z,8.03
2019-05-29T21:21:10.040Z,6.42
2019-05-29T21:26:16.819Z,5.80
2019-05-29T21:31:23.283Z,5.10
2019-05-29T21:36:29.303Z,5.30
2019-05-29T21:41:36.341Z,4.70
2019-05-29T21:46:43.130Z,4.90
2019-05-29T21:51:49.188Z,5.10
2019-05-29T21:56:55.588Z,5.60
2019-05-29T22:02:02.115Z,7.30
2019-05-29T22:07:08.919Z,6.83
2019-05-29T22:12:15.755Z,6.67
2019-05-29T22:17:22.242Z,6.60
2019-05-29T22:22:28.638Z,6.70
2019-05-29T22:27:35.415Z,6.90
2019-05-29T22:32:41.838Z,7.20
2019-05-29T22:37:48.359Z,7.40
2019-05-29T22:42:55.583Z,7.00
2019-05-29T22:48:02.371Z,7.45
2019-05-29T22:53:09.119Z,7.10
2019-05-29T22:58:15.650Z,7.47
2019-05-29T23:03:22.388Z,7.70
2019-05-29T23:08:28.781Z,7.25
2019-05-29T23:13:35.211Z,7.20
2019-05-29T23:18:42.260Z,6.83
2019-05-29T23:23:48.347Z,6.70
2019-05-29T23:28:55.114Z,7.20
2019-05-29T23:34:03.163Z,7.20
2019-05-29T23:39:09.587Z,7.37
2019-05-29T23:44:15.973Z,7.43
2019-05-29T23:49:22.834Z,7.87
2019-05-29T23:54:28.961Z,7.65
2019-05-29T23:59:35.129Z,7.00
